ルレオ の空港の天気 - METARとTAF

Lulea / Kallax ( ESPA / LLA ) - スウェーデン ルレオ
飛行場実況気象(Metar)
観測時間10/25 19:50 CET (10/25 18:50 UTC)
風向・風速南南東 11m/s
視程8000m
天気現象
全天の8割程度の雲 雲底高度 340m
気温3℃
湿度93%
気圧1003hPa
METARESPA 251850Z 15021KT 8000 RA BKN011 03/02 Q1003
過去の天気等 Google飛行場航空写真 Wunderground天気予報

過去48時間のMETAR

飛行場予報(TAF)
発表時間: 10/25 18:30 CET (10/25 17:30 UTC)
予報対象時間: 25日19時 CET ~ 26日1時 CET
風向・風速南南東 9m/s 瞬間風速 14m/s
視程10km以上
天気現象弱い雨
全天の4割程度の雲 雲底高度 180m
全天の8割程度の雲 雲底高度 610m
25日19時 CET ~ 26日1時 CET に一時的に
視程2500m
天気現象雨 もや
全天を覆う雲 雲底高度 180m
TAF ESPA 251730Z 2518/2524 15017G27KT 9999 -RA SCT006 BKN020
TEMPO 2518/2524 2500 RA BR OVC006